Time;durP1;ratioP1;P1;durP2;ratioP2;P2;SDS_P1;SDS_P2;PMS_P1;PMS_P2;Temp;Humidity;BMP_temperature;BMP_pressure;BME280_temperature;BME280_humidity;BME280_pressure;Samples;Min_cycle;Max_cycle;Signal;HPM_P1;HPM_P2
2022/03/04 00:02:21;;;;;;;5.28;4.55;;;;;;;4.03;70.09;98859.27;1687588;83;21006;-62
2022/03/04 00:04:48;;;;;;;7.03;5.25;;;;;;;4.01;70.13;98854.64;1762718;80;21065;-65
2022/03/04 00:07:15;;;;;;;6.00;5.28;;;;;;;4.00;70.06;98856.91;1756357;80;20975;-66
2022/03/04 00:09:42;;;;;;;6.92;4.95;;;;;;;3.99;70.01;98855.75;1747430;80;20957;-65
2022/03/04 00:12:10;;;;;;;6.33;5.55;;;;;;;3.96;70.05;98854.23;1744071;82;21455;-65
2022/03/04 00:14:37;;;;;;;8.95;5.72;;;;;;;3.95;70.10;98854.36;1744177;81;21041;-63
2022/03/04 00:17:04;;;;;;;5.80;5.20;;;;;;;3.94;70.12;98856.64;1744050;82;21149;-63
2022/03/04 00:19:31;;;;;;;6.30;5.20;;;;;;;3.94;70.11;98852.70;1729579;81;21032;-63
2022/03/04 00:21:58;;;;;;;6.83;5.75;;;;;;;3.94;70.06;98846.11;1746756;81;20917;-65
2022/03/04 00:24:25;;;;;;;7.20;5.87;;;;;;;3.94;70.09;98848.75;1754275;80;20959;-65
2022/03/04 00:26:51;;;;;;;7.08;5.78;;;;;;;3.93;70.10;98847.94;1765048;79;21010;-64
2022/03/04 00:29:18;;;;;;;7.50;5.70;;;;;;;3.94;70.20;98856.64;1741150;81;21256;-62
2022/03/04 00:31:45;;;;;;;6.97;6.15;;;;;;;3.96;70.22;98858.67;1733757;81;20893;-64
2022/03/04 00:34:12;;;;;;;6.40;5.60;;;;;;;3.97;70.27;98862.94;1741522;81;21459;-63
2022/03/04 00:36:39;;;;;;;7.00;5.80;;;;;;;3.97;70.29;98865.09;1727498;82;20969;-62
2022/03/04 00:39:12;;;;;;;7.15;5.35;;;;;;;3.97;70.30;98861.14;1746963;81;21090;-63
2022/03/04 00:41:39;;;;;;;8.50;7.05;;;;;;;3.99;70.33;98871.55;1732095;82;21204;-65
2022/03/04 00:44:06;;;;;;;9.00;6.67;;;;;;;3.98;70.34;98864.61;1716858;82;20939;-65
2022/03/04 00:46:34;;;;;;;10.60;7.70;;;;;;;3.99;70.34;98861.82;1726972;82;20930;-65
2022/03/04 00:49:01;;;;;;;8.48;7.30;;;;;;;4.01;70.34;98866.96;1757795;81;21046;-65
2022/03/04 00:51:28;;;;;;;11.90;8.05;;;;;;;4.02;70.30;98857.59;1742310;82;20985;-64
2022/03/04 00:53:55;;;;;;;13.25;8.68;;;;;;;4.06;70.16;98858.14;1742408;81;21777;-64
2022/03/04 00:56:21;;;;;;;11.25;8.00;;;;;;;4.06;70.09;98859.46;1768901;81;20998;-64
2022/03/04 00:58:48;;;;;;;12.07;8.25;;;;;;;4.06;70.06;98856.83;1744235;80;21560;-63
2022/03/04 01:01:16;;;;;;;11.95;8.30;;;;;;;4.08;70.00;98857.50;1748160;81;21056;-64
2022/03/04 01:03:43;;;;;;;9.78;8.53;;;;;;;4.07;69.99;98850.57;1742205;81;20893;-64
2022/03/04 01:06:10;;;;;;;11.73;8.75;;;;;;;4.09;69.81;98851.28;1744138;82;21148;-63
2022/03/04 01:08:37;;;;;;;10.53;8.83;;;;;;;4.10;69.80;98852.92;1743468;80;20995;-64
2022/03/04 01:11:03;;;;;;;9.75;8.20;;;;;;;4.10;69.80;98851.60;1745763;80;20924;-65
2022/03/04 01:13:31;;;;;;;10.65;9.15;;;;;;;4.09;69.74;98853.91;1757448;80;21066;-63
2022/03/04 01:15:57;;;;;;;12.63;9.08;;;;;;;4.10;69.61;98856.39;1749058;80;21493;-63
2022/03/04 01:18:24;;;;;;;11.00;8.98;;;;;;;4.10;69.57;98856.39;1766947;80;21056;-65
2022/03/04 01:20:51;;;;;;;12.10;9.00;;;;;;;4.11;69.47;98854.59;1741351;81;20944;-63
2022/03/04 01:23:18;;;;;;;9.83;8.48;;;;;;;4.12;69.30;98859.70;1758010;80;20975;-64
2022/03/04 01:25:45;;;;;;;10.63;8.55;;;;;;;4.13;69.15;98860.05;1745534;80;20932;-64
2022/03/04 01:28:12;;;;;;;9.93;8.78;;;;;;;4.13;69.08;98853.95;1757696;80;21054;-63
2022/03/04 01:30:39;;;;;;;10.38;8.53;;;;;;;4.11;69.05;98853.27;1756560;80;21136;-64
2022/03/04 01:33:06;;;;;;;10.88;8.13;;;;;;;4.11;69.02;98858.53;1757479;80;21489;-65
2022/03/04 01:35:33;;;;;;;11.88;8.60;;;;;;;4.08;69.01;98851.76;1748276;80;20885;-62
2022/03/04 01:37:59;;;;;;;11.03;8.93;;;;;;;4.06;69.07;98845.81;1723359;82;21422;-64
2022/03/04 01:40:27;;;;;;;12.45;8.60;;;;;;;4.06;69.09;98843.67;1747760;80;20871;-64
2022/03/04 01:42:54;;;;;;;8.80;7.90;;;;;;;4.05;69.04;98838.05;1761647;80;21158;-65
2022/03/04 01:45:22;;;;;;;8.80;7.87;;;;;;;4.04;69.01;98842.98;1761936;80;20844;-63
2022/03/04 01:47:49;;;;;;;10.43;8.08;;;;;;;4.02;69.06;98838.33;1770123;80;20998;-65
2022/03/04 01:50:16;;;;;;;8.35;7.50;;;;;;;4.02;69.12;98839.65;1744602;80;21009;-64
2022/03/04 01:52:43;;;;;;;9.60;7.87;;;;;;;4.03;69.15;98842.63;1745034;80;20903;-64
2022/03/04 01:55:10;;;;;;;9.35;8.03;;;;;;;4.06;69.12;98842.34;1742368;81;21021;-64
2022/03/04 01:57:38;;;;;;;9.58;7.12;;;;;;;10.26;72.02;98814.82;1743198;81;20987;-65
2022/03/04 02:00:08;;;;;;;9.03;7.53;;;;;;;7.36;61.06;98826.09;1747402;81;20982;-63
2022/03/04 02:02:37;;;;;;;12.20;8.68;;;;;;;7.35;60.01;98827.59;1765812;80;21003;-64
2022/03/04 02:05:05;;;;;;;9.20;7.12;;;;;;;7.28;59.44;98830.05;1749917;81;20975;-63
2022/03/04 02:07:32;;;;;;;10.70;7.42;;;;;;;7.48;58.37;98832.38;1765780;80;21233;-66
2022/03/04 02:10:01;;;;;;;8.85;7.00;;;;;;;7.63;57.41;98828.89;1738991;80;21627;-65
2022/03/04 02:12:28;;;;;;;10.00;7.97;;;;;;;7.07;58.30;98832.84;1752678;80;20960;-63
2022/03/04 02:14:54;;;;;;;9.78;7.47;;;;;;;6.80;58.96;98833.45;1767309;80;21002;-64
2022/03/04 02:17:21;;;;;;;13.22;8.68;;;;;;;6.74;58.96;98839.89;1744499;81;20849;-64
2022/03/04 02:19:53;;;;;;;9.70;8.40;;;;;;;6.62;59.14;98841.19;1758698;80;21542;-64
2022/03/04 02:22:20;;;;;;;10.72;8.63;;;;;;;6.53;59.03;98838.17;1771075;80;21418;-64
2022/03/04 02:24:47;;;;;;;10.23;8.10;;;;;;;6.46;58.97;98840.64;1770143;80;20971;-64
2022/03/04 02:27:13;;;;;;;9.78;8.78;;;;;;;6.48;58.72;98837.34;1743614;82;21440;-64
2022/03/04 02:29:40;;;;;;;11.65;8.95;;;;;;;6.47;58.39;98838.31;1743770;80;20921;-63
2022/03/04 02:32:09;;;;;;;9.80;8.55;;;;;;;6.45;58.30;98840.30;1749882;80;21872;-65
2022/03/04 02:34:35;;;;;;;10.20;8.18;;;;;;;6.45;58.25;98841.62;1752168;80;21034;-63
2022/03/04 02:37:03;;;;;;;11.48;8.88;;;;;;;6.40;58.16;98837.30;1738631;81;21027;-63
2022/03/04 02:39:30;;;;;;;9.58;8.10;;;;;;;6.38;58.15;98840.61;1726053;80;20948;-63
2022/03/04 02:41:57;;;;;;;9.68;8.68;;;;;;;6.33;58.09;98840.75;1761032;80;20923;-64
2022/03/04 02:44:24;;;;;;;10.13;8.48;;;;;;;6.26;58.21;98837.89;1743932;80;21039;-63
2022/03/04 02:46:51;;;;;;;9.95;8.70;;;;;;;6.26;57.95;98836.57;1753284;80;20946;-64
2022/03/04 02:49:18;;;;;;;10.05;8.53;;;;;;;6.25;57.75;98836.26;1740403;80;20888;-64
2022/03/04 02:51:45;;;;;;;12.25;9.03;;;;;;;6.11;57.90;98836.84;1743688;81;20976;-64
2022/03/04 02:54:12;;;;;;;10.03;8.95;;;;;;;6.02;58.04;98832.52;1752729;80;20975;-65
2022/03/04 02:56:39;;;;;;;10.18;9.18;;;;;;;5.97;57.94;98834.80;1771446;80;21877;-64
2022/03/04 02:59:06;;;;;;;10.08;8.93;;;;;;;5.92;58.03;98836.56;1759431;80;20919;-64
2022/03/04 03:01:33;;;;;;;11.00;9.88;;;;;;;5.84;58.15;98843.59;1744196;82;20924;-64
2022/03/04 03:04:00;;;;;;;11.80;9.00;;;;;;;5.81;58.10;98840.78;1757814;80;20957;-63
2022/03/04 03:06:27;;;;;;;10.72;8.88;;;;;;;5.77;58.12;98847.34;1759833;80;20996;-64
2022/03/04 03:08:54;;;;;;;10.68;9.35;;;;;;;5.82;57.82;98848.19;1748374;80;22044;-66
2022/03/04 03:11:20;;;;;;;12.95;10.05;;;;;;;5.74;57.89;98848.13;1763770;80;20920;-62
2022/03/04 03:13:47;;;;;;;10.32;8.85;;;;;;;5.71;57.92;98846.62;1747227;80;21011;-63
2022/03/04 03:16:14;;;;;;;11.33;10.10;;;;;;;5.70;57.98;98848.11;1755429;80;20897;-65
2022/03/04 03:18:41;;;;;;;12.18;9.83;;;;;;;5.76;57.80;98855.42;1763892;80;20967;-64
2022/03/04 03:21:09;;;;;;;10.80;9.53;;;;;;;5.76;57.70;98854.10;1740552;81;21305;-64
2022/03/04 03:23:36;;;;;;;11.55;9.78;;;;;;;5.72;57.69;98850.94;1742874;82;20925;-63
2022/03/04 03:26:03;;;;;;;12.73;10.63;;;;;;;5.74;57.61;98854.72;1747036;80;20939;-65
2022/03/04 03:28:30;;;;;;;11.68;10.48;;;;;;;5.74;57.54;98856.05;1763294;80;20911;-64
2022/03/04 03:30:57;;;;;;;12.25;10.95;;;;;;;5.74;57.43;98858.69;1756176;80;21505;-62
2022/03/04 03:33:23;;;;;;;11.90;10.60;;;;;;;5.58;57.74;98862.03;1762724;80;21067;-64
2022/03/04 03:35:54;;;;;;;13.38;11.15;;;;;;;4.84;58.72;98867.66;1759436;80;21398;-64
2022/03/04 03:38:19;;;;;;;12.98;11.12;;;;;;;3.81;62.82;98882.47;1747203;80;20935;-64
2022/03/04 03:40:46;;;;;;;14.03;11.15;;;;;;;3.59;63.73;98877.87;1744768;80;20932;-65
2022/03/04 03:43:13;;;;;;;12.25;10.95;;;;;;;3.48;64.15;98871.44;1742974;82;20905;-64
2022/03/04 03:45:40;;;;;;;12.88;11.53;;;;;;;3.42;64.47;98877.25;1752391;80;21486;-64
2022/03/04 03:48:07;;;;;;;12.03;10.82;;;;;;;3.41;64.65;98875.61;1766560;80;20905;-62
2022/03/04 03:50:34;;;;;;;15.08;10.53;;;;;;;3.37;64.93;98879.47;1744587;80;20897;-63
2022/03/04 03:53:01;;;;;;;17.45;12.58;;;;;;;3.37;65.09;98873.37;1741642;82;21015;-63
2022/03/04 03:55:28;;;;;;;12.82;11.08;;;;;;;3.38;65.24;98878.51;1743446;82;21507;-64
2022/03/04 03:57:56;;;;;;;14.65;12.10;;;;;;;3.43;65.21;98880.23;1747749;80;21058;-63
2022/03/04 04:00:23;;;;;;;13.72;11.73;;;;;;;3.40;65.37;98873.09;1740388;81;20850;-66
2022/03/04 04:02:50;;;;;;;13.25;11.50;;;;;;;3.44;65.37;98882.38;1744551;80;20889;-66
2022/03/04 04:05:17;;;;;;;14.78;12.25;;;;;;;3.51;65.30;98879.53;1771684;80;21469;-64
2022/03/04 04:07:44;;;;;;;14.18;12.68;;;;;;;3.51;65.21;98880.84;1754037;80;20850;-64
2022/03/04 04:10:11;;;;;;;13.35;11.22;;;;;;;3.53;65.10;98882.84;1752218;80;21147;-63
2022/03/04 04:12:38;;;;;;;13.35;11.90;;;;;;;3.52;65.35;98875.44;1753429;80;20892;-62
2022/03/04 04:15:07;;;;;;;13.58;12.13;;;;;;;3.48;65.21;98878.02;1759409;80;21022;-62
2022/03/04 04:17:34;;;;;;;15.05;12.93;;;;;;;3.52;65.04;98878.58;1752543;80;20944;-66
2022/03/04 04:20:01;;;;;;;18.62;12.80;;;;;;;3.47;65.17;98882.91;1752386;80;21064;-63
2022/03/04 04:22:30;;;;;;;15.88;13.18;;;;;;;3.48;66.44;98883.27;1765272;80;21234;-62
2022/03/04 04:24:57;;;;;;;13.25;11.45;;;;;;;3.48;65.92;98886.38;1768348;80;20982;-65
2022/03/04 04:27:24;;;;;;;14.63;12.90;;;;;;;3.48;65.73;98887.22;1745896;80;20882;-65
2022/03/04 04:29:50;;;;;;;14.20;12.70;;;;;;;3.51;65.64;98888.73;1747785;80;20893;-64
2022/03/04 04:32:17;;;;;;;13.98;12.45;;;;;;;3.49;65.64;98899.41;1747935;80;20925;-63
2022/03/04 04:34:44;;;;;;;14.13;12.70;;;;;;;3.51;65.61;98897.46;1745974;80;21154;-63
2022/03/04 04:37:11;;;;;;;14.55;13.03;;;;;;;3.55;65.53;98897.98;1750623;80;20927;-62
2022/03/04 04:39:38;;;;;;;16.15;12.28;;;;;;;3.52;65.64;98903.05;1753944;80;21042;-62
2022/03/04 04:42:06;;;;;;;14.13;12.70;;;;;;;3.54;65.71;98901.13;1735671;80;20995;-64
2022/03/04 04:44:33;;;;;;;15.00;13.05;;;;;;;3.55;65.79;98908.03;1744949;80;20911;-63
2022/03/04 04:47:00;;;;;;;15.60;14.00;;;;;;;3.59;66.17;98907.28;1752324;80;21216;-64
2022/03/04 04:49:29;;;;;;;16.12;13.18;;;;;;;3.75;65.92;98911.48;1755424;80;20947;-65
2022/03/04 04:51:56;;;;;;;15.80;12.98;;;;;;;3.77;65.61;98907.39;1768872;80;20971;-64
2022/03/04 04:54:23;;;;;;;16.40;14.20;;;;;;;3.75;65.54;98912.29;1744556;82;20929;-66
2022/03/04 04:56:50;;;;;;;16.48;13.80;;;;;;;3.73;65.79;98911.61;1768129;80;20911;-62
2022/03/04 04:59:17;;;;;;;21.00;13.60;;;;;;;3.68;66.30;98911.20;1755047;80;21056;-63
2022/03/04 05:01:43;;;;;;;16.55;13.60;;;;;;;3.64;66.57;98920.84;1732921;82;21004;-66
2022/03/04 05:04:10;;;;;;;15.03;13.00;;;;;;;3.60;66.70;98924.22;1738930;82;20898;-65
2022/03/04 05:06:37;;;;;;;16.82;14.98;;;;;;;3.65;66.32;98925.95;1739236;81;20999;-64
2022/03/04 05:09:04;;;;;;;18.02;14.45;;;;;;;3.54;66.33;98926.12;1723666;81;20995;-64
2022/03/04 05:11:31;;;;;;;19.12;15.25;;;;;;;3.54;66.17;98931.86;1738190;82;20960;-64
2022/03/04 05:13:58;;;;;;;18.55;16.37;;;;;;;3.53;66.03;98931.02;1738980;81;21494;-63
2022/03/04 05:16:25;;;;;;;19.65;16.75;;;;;;;3.52;65.85;98935.92;1738901;82;21004;-63
2022/03/04 05:18:52;;;;;;;18.87;16.85;;;;;;;3.51;65.82;98936.08;1733070;81;21453;-63
2022/03/04 05:21:19;;;;;;;18.20;16.25;;;;;;;3.49;65.83;98934.91;1738769;82;20969;-61
2022/03/04 05:24:02;;;;;;;19.77;15.90;;;;;;;3.51;65.86;98935.59;1736442;82;21496;-62
2022/03/04 05:26:35;;;;;;;20.05;16.17;;;;;;;3.44;66.09;98942.86;1729879;82;20973;-65
2022/03/04 05:29:05;;;;;;;16.55;14.78;;;;;;;3.39;66.22;98941.14;1735426;80;20916;-65
2022/03/04 05:31:31;;;;;;;18.52;15.15;;;;;;;3.42;66.05;98939.04;1680671;84;20890;-63
2022/03/04 05:33:58;;;;;;;17.55;14.75;;;;;;;3.48;65.95;98944.23;1736160;82;20997;-63
2022/03/04 05:36:26;;;;;;;14.95;13.03;;;;;;;3.51;65.91;98947.43;1738892;82;21240;-61
2022/03/04 05:38:53;;;;;;;15.43;13.22;;;;;;;3.52;65.96;98945.12;1738756;81;21022;-65
2022/03/04 05:41:20;;;;;;;15.68;13.13;;;;;;;3.54;66.68;98947.64;1735971;82;21434;-63
2022/03/04 05:43:48;;;;;;;15.90;14.25;;;;;;;3.59;66.25;98956.77;1738498;82;20960;-62
2022/03/04 05:46:15;;;;;;;16.35;13.70;;;;;;;3.64;66.08;98949.30;1728605;82;20925;-64
2022/03/04 05:48:42;;;;;;;16.42;13.85;;;;;;;3.67;65.99;98950.34;1738405;81;21226;-63
2022/03/04 05:51:09;;;;;;;17.23;14.40;;;;;;;3.71;65.96;98954.81;1738013;81;20957;-64
2022/03/04 05:53:36;;;;;;;15.50;13.90;;;;;;;3.79;65.84;98948.84;1737165;82;20985;-65
2022/03/04 05:56:04;;;;;;;17.95;14.85;;;;;;;3.81;66.03;98953.52;1737814;82;21010;-65
2022/03/04 05:58:31;;;;;;;16.02;14.05;;;;;;;3.89;65.95;98959.71;1741161;81;20904;-64
2022/03/04 06:00:58;;;;;;;15.32;13.53;;;;;;;3.98;65.83;98955.41;1729204;81;21214;-64
2022/03/04 06:03:25;;;;;;;17.02;14.85;;;;;;;4.08;65.40;98962.31;1734619;82;21087;-63
2022/03/04 06:05:52;;;;;;;18.67;13.43;;;;;;;4.12;65.04;98962.37;1732913;82;21434;-65
2022/03/04 06:08:25;;;;;;;18.40;15.05;;;;;;;4.09;64.95;98960.52;1720129;82;20933;-65
2022/03/04 06:10:53;;;;;;;17.42;14.33;;;;;;;4.10;64.92;98969.58;1711046;82;20940;-66
2022/03/04 06:13:21;;;;;;;17.35;14.05;;;;;;;4.15;64.82;98973.09;1725673;82;21810;-62
2022/03/04 06:15:47;;;;;;;15.85;14.15;;;;;;;4.24;64.70;98976.20;1704934;82;21004;-65
2022/03/04 06:18:15;;;;;;;17.55;14.78;;;;;;;4.30;64.69;98976.97;1708206;82;21019;-64
2022/03/04 06:20:43;;;;;;;17.67;14.60;;;;;;;4.41;64.53;98975.45;1715933;82;21015;-63
2022/03/04 06:23:11;;;;;;;16.00;14.30;;;;;;;4.49;64.40;98975.56;1716445;82;20953;-65
2022/03/04 06:25:38;;;;;;;17.98;14.65;;;;;;;4.55;64.28;98982.91;1712879;82;21137;-61
2022/03/04 06:28:05;;;;;;;16.95;15.15;;;;;;;4.60;64.01;98973.24;1719445;82;21461;-64
2022/03/04 06:30:36;;;;;;;17.98;14.47;;;;;;;4.71;63.79;98985.76;1721267;82;20987;-61
2022/03/04 06:35:50;;;;;;;16.85;15.10;;;;;;;4.93;63.28;98982.73;1720184;82;21035;-63
2022/03/04 06:38:17;;;;;;;17.10;14.90;;;;;;;5.12;62.98;98983.59;1727894;82;21289;-67
2022/03/04 06:41:09;;;;;;;16.65;13.78;;;;;;;5.24;62.77;98981.92;1720446;82;20968;-64
2022/03/04 06:43:39;;;;;;;16.60;14.93;;;;;;;5.38;62.50;98984.05;1715909;82;21521;-64
2022/03/04 06:46:06;;;;;;;20.37;16.00;;;;;;;5.52;62.14;98980.08;1705558;82;21076;-62
2022/03/04 06:48:34;;;;;;;18.35;15.18;;;;;;;5.58;61.71;98988.69;1712116;82;20952;-63
2022/03/04 06:51:01;;;;;;;16.48;14.65;;;;;;;5.70;61.28;98985.35;1707471;82;22275;-64
2022/03/04 06:53:28;;;;;;;15.80;13.98;;;;;;;5.79;60.80;98989.22;1716252;82;21765;-64
2022/03/04 06:55:55;;;;;;;19.12;15.40;;;;;;;5.89;60.75;98991.31;1710775;82;21031;-64
2022/03/04 06:58:22;;;;;;;15.78;13.95;;;;;;;6.10;60.42;98986.53;1727604;82;20960;-63
2022/03/04 07:00:49;;;;;;;16.23;14.63;;;;;;;6.28;59.74;98979.91;1742703;80;20891;-65
2022/03/04 07:03:19;;;;;;;16.45;14.35;;;;;;;6.39;59.03;98986.76;1752900;80;21518;-65
2022/03/04 07:05:47;;;;;;;15.00;13.38;;;;;;;6.50;58.68;98989.11;1755345;80;21003;-65
2022/03/04 07:08:14;;;;;;;17.37;15.55;;;;;;;6.66;58.40;98992.69;1741822;81;20968;-63
2022/03/04 07:10:45;;;;;;;17.37;15.63;;;;;;;6.87;57.98;98990.97;1767570;80;20983;-64
2022/03/04 07:13:13;;;;;;;16.12;14.28;;;;;;;7.06;57.43;98989.41;1748188;80;21451;-63
2022/03/04 07:15:42;;;;;;;16.12;14.50;;;;;;;7.36;57.16;98994.61;1759984;80;21022;-62
2022/03/04 07:18:11;;;;;;;22.13;18.15;;;;;;;7.74;56.82;98994.53;1758189;80;20919;-65
2022/03/04 07:20:40;;;;;;;23.00;17.35;;;;;;;8.15;55.82;98996.20;1756676;80;21486;-65
2022/03/04 07:23:07;;;;;;;18.95;15.60;;;;;;;8.61;54.47;98988.03;1766495;80;20974;-65
2022/03/04 07:25:34;;;;;;;17.42;14.68;;;;;;;8.93;53.50;98989.27;1767664;80;21425;-64
2022/03/04 07:28:02;;;;;;;16.73;14.90;;;;;;;8.89;53.26;98991.92;1761770;80;21230;-62
2022/03/04 07:30:29;;;;;;;15.32;13.72;;;;;;;9.03;52.39;98996.52;1757597;80;20979;-62
2022/03/04 07:32:59;;;;;;;16.02;14.33;;;;;;;9.05;51.94;98994.52;1703346;83;20959;-65
2022/03/04 07:35:27;;;;;;;15.63;13.93;;;;;;;9.11;51.45;98991.67;1758636;80;21497;-62
2022/03/04 07:37:55;;;;;;;16.65;14.43;;;;;;;9.05;51.07;98997.17;1754137;80;21536;-63
2022/03/04 07:40:22;;;;;;;16.30;14.33;;;;;;;9.10;50.92;98997.97;1754345;80;21253;-64
2022/03/04 07:42:49;;;;;;;17.32;14.93;;;;;;;9.08;50.71;98991.52;1760786;80;20916;-63
2022/03/04 07:45:17;;;;;;;14.83;13.38;;;;;;;9.13;50.29;98998.95;1762768;80;20943;-62
2022/03/04 07:47:44;;;;;;;14.80;13.30;;;;;;;9.26;50.28;98994.75;1763463;80;20935;-63
2022/03/04 07:50:13;;;;;;;14.55;13.15;;;;;;;9.38;50.22;98999.19;1760275;80;20856;-65
2022/03/04 07:52:41;;;;;;;15.98;13.55;;;;;;;9.52;49.99;99003.73;1751744;80;21242;-65
2022/03/04 07:55:10;;;;;;;16.45;13.93;;;;;;;9.57;49.36;99008.02;1756949;80;21637;-62
2022/03/04 07:57:37;;;;;;;14.85;13.35;;;;;;;9.54;48.95;99004.38;1746078;80;20990;-65
2022/03/04 08:00:08;;;;;;;14.90;13.50;;;;;;;9.51;48.92;99009.23;1738727;81;21107;-62
2022/03/04 08:02:39;;;;;;;14.85;13.40;;;;;;;9.53;48.62;99015.19;1734367;82;21473;-63
2022/03/04 08:05:09;;;;;;;14.70;13.20;;;;;;;9.48;48.46;99009.08;1723754;81;21282;-64
2022/03/04 08:07:37;;;;;;;14.68;13.18;;;;;;;9.44;48.72;99014.40;1731941;82;21081;-64
2022/03/04 08:10:08;;;;;;;15.78;13.40;;;;;;;9.41;48.81;99013.41;1733286;82;20934;-66
2022/03/04 08:12:36;;;;;;;14.03;12.63;;;;;;;9.42;48.50;99015.08;1731961;82;20942;-65
2022/03/04 08:15:05;;;;;;;14.95;13.05;;;;;;;9.39;48.61;99014.59;1736542;82;21453;-65
2022/03/04 08:17:33;;;;;;;14.23;12.93;;;;;;;9.39;48.47;99018.57;1731232;82;21558;-63
2022/03/04 08:20:05;;;;;;;15.08;12.75;;;;;;;9.57;48.11;99022.62;1730528;82;21516;-65
2022/03/04 08:22:34;;;;;;;13.68;11.48;;;;;;;9.90;47.69;99020.11;1735335;82;21076;-64
2022/03/04 08:25:03;;;;;;;13.62;12.30;;;;;;;10.21;47.12;99019.23;1725184;82;21028;-64
2022/03/04 08:27:30;;;;;;;12.60;11.30;;;;;;;10.44;46.51;99020.02;1730559;82;21397;-62
2022/03/04 08:29:58;;;;;;;15.23;13.48;;;;;;;10.67;45.77;99016.80;1729232;82;21293;-64
2022/03/04 08:32:25;;;;;;;14.75;12.20;;;;;;;10.94;45.07;99024.17;1732237;82;21165;-65
2022/03/04 08:34:54;;;;;;;13.50;12.20;;;;;;;11.15;44.52;99025.59;1734041;82;20982;-60
2022/03/04 08:37:21;;;;;;;12.93;11.73;;;;;;;11.63;43.44;99021.45;1734338;82;21516;-65
2022/03/04 08:39:48;;;;;;;14.23;12.73;;;;;;;11.96;43.47;99021.85;1729334;82;20995;-64
2022/03/04 08:42:17;;;;;;;12.20;10.90;;;;;;;12.34;42.72;99015.72;1732070;82;21177;-63
2022/03/04 08:44:44;;;;;;;11.97;10.88;;;;;;;12.75;42.09;99017.16;1737056;82;20922;-65
2022/03/04 08:47:13;;;;;;;13.45;11.20;;;;;;;13.11;41.27;99011.17;1721963;82;20869;-64
2022/03/04 08:49:40;;;;;;;13.45;12.10;;;;;;;13.58;40.19;99013.81;1714445;82;20939;-65
2022/03/04 08:52:07;;;;;;;13.38;12.07;;;;;;;13.78;39.77;99017.08;1721368;82;20988;-63
2022/03/04 08:54:35;;;;;;;11.97;10.78;;;;;;;14.16;39.10;99014.16;1719917;82;21245;-65
2022/03/04 08:57:05;;;;;;;14.83;11.08;;;;;;;14.58;38.36;99013.80;1729434;82;20918;-64
2022/03/04 08:59:32;;;;;;;11.30;10.13;;;;;;;15.01;37.02;99014.67;1731797;82;20908;-66
2022/03/04 09:02:00;;;;;;;11.12;10.08;;;;;;;15.19;36.35;99010.80;1756164;80;21035;-63
2022/03/04 09:04:27;;;;;;;11.03;9.90;;;;;;;15.43;35.79;99012.25;1757016;80;21056;-63
2022/03/04 09:06:55;;;;;;;10.98;9.85;;;;;;;15.73;35.50;99007.20;1758179;80;21255;-64
2022/03/04 09:09:22;;;;;;;13.08;9.65;;;;;;;16.09;34.55;99010.59;1742340;81;20975;-63
2022/03/04 09:11:49;;;;;;;10.88;9.80;;;;;;;16.21;33.94;99014.24;1766192;81;20958;-62
2022/03/04 09:14:17;;;;;;;9.88;8.93;;;;;;;16.42;33.39;99015.22;1767693;80;20990;-70
2022/03/04 09:16:44;;;;;;;10.05;9.15;;;;;;;16.50;33.11;99014.12;1755215;80;20999;-63
2022/03/04 09:19:11;;;;;;;11.60;10.05;;;;;;;16.64;32.81;99015.67;1741635;80;21244;-60
2022/03/04 09:21:38;;;;;;;11.12;10.10;;;;;;;16.68;32.44;99016.34;1745555;80;20934;-61
2022/03/04 09:24:06;;;;;;;11.00;9.60;;;;;;;16.35;32.10;99016.28;1744188;80;20974;-62
2022/03/04 09:26:34;;;;;;;11.43;10.25;;;;;;;15.91;32.21;99019.38;1746855;80;21039;-63
2022/03/04 09:29:01;;;;;;;11.63;10.23;;;;;;;15.35;33.32;99019.22;1739050;81;21041;-62
2022/03/04 09:31:28;;;;;;;11.05;9.95;;;;;;;14.81;33.43;99016.86;1742164;82;21220;-64
2022/03/04 09:33:56;;;;;;;10.20;9.30;;;;;;;14.21;33.59;99020.55;1754379;80;21591;-61
2022/03/04 09:36:23;;;;;;;10.82;9.83;;;;;;;13.63;34.21;99025.27;1744543;80;20941;-63
2022/03/04 09:38:50;;;;;;;10.48;9.48;;;;;;;13.13;34.74;99027.81;1752909;80;20991;-64
2022/03/04 09:41:17;;;;;;;11.63;10.43;;;;;;;12.78;35.44;99028.78;1766351;80;21050;-65
2022/03/04 09:43:44;;;;;;;9.95;8.95;;;;;;;12.54;35.94;99033.24;1772725;80;21134;-64
2022/03/04 09:46:11;;;;;;;10.38;9.38;;;;;;;12.31;36.29;99036.11;1768667;80;21003;-62
2022/03/04 09:48:43;;;;;;;13.20;9.63;;;;;;;12.00;36.61;99040.44;1760394;80;20935;-63
2022/03/04 09:51:10;;;;;;;10.38;9.30;;;;;;;11.73;36.81;99037.98;1744548;81;20956;-63
2022/03/04 09:53:39;;;;;;;10.50;9.40;;;;;;;11.51;36.94;99035.45;1745849;80;21487;-64
2022/03/04 09:56:07;;;;;;;10.40;8.88;;;;;;;11.28;37.09;99036.08;1742879;82;21262;-62
2022/03/04 09:58:37;;;;;;;11.45;10.23;;;;;;;11.02;37.52;99036.06;1741221;81;21452;-63
2022/03/04 10:01:12;;;;;;;9.88;8.98;;;;;;;10.92;37.31;99036.01;1737053;82;20946;-63
2022/03/04 10:03:47;;;;;;;10.95;9.80;;;;;;;10.78;37.39;99033.66;1720945;82;21527;-62
2022/03/04 10:06:15;;;;;;;9.83;8.83;;;;;;;10.76;38.36;99036.17;1737785;82;20887;-64
2022/03/04 10:08:50;;;;;;;10.08;8.85;;;;;;;10.89;40.79;99039.03;1734660;82;21321;-64
2022/03/04 10:11:30;;;;;;;9.90;8.90;;;;;;;11.08;41.15;99045.95;1734996;82;21008;-61
2022/03/04 10:14:04;;;;;;;10.40;8.58;;;;;;;11.24;39.92;99043.60;1729755;82;20902;-61
2022/03/04 10:16:36;;;;;;;9.58;8.68;;;;;;;11.28;38.06;99041.41;1737308;81;20978;-64
2022/03/04 10:19:17;;;;;;;9.58;8.58;;;;;;;11.16;38.46;99037.04;1723267;82;20940;-60
2022/03/04 10:21:53;;;;;;;10.50;9.40;;;;;;;11.01;37.74;99035.72;1733912;82;21310;-60
2022/03/04 10:24:33;;;;;;;10.20;9.15;;;;;;;10.84;37.60;99040.92;1712376;82;21432;-60
2022/03/04 10:27:04;;;;;;;10.05;9.05;;;;;;;10.73;37.30;99038.70;1737827;82;21465;-67
2022/03/04 10:29:33;;;;;;;10.13;9.18;;;;;;;10.62;39.38;99037.80;1715563;82;21063;-60
2022/03/04 10:32:10;;;;;;;9.68;8.78;;;;;;;10.64;38.36;99038.97;1705120;82;21532;-63
2022/03/04 10:34:53;;;;;;;12.93;8.98;;;;;;;10.49;37.80;99042.41;1736935;82;21206;-62
2022/03/04 10:37:48;;;;;;;9.48;8.43;;;;;;;10.29;37.64;99043.92;1738285;82;20922;-61
2022/03/04 10:40:21;;;;;;;9.68;8.73;;;;;;;10.04;37.89;99046.92;1730012;82;20950;-64
2022/03/04 10:42:51;;;;;;;13.35;10.43;;;;;;;9.78;38.21;99045.41;1735708;82;20975;-64
2022/03/04 10:45:29;;;;;;;13.43;8.85;;;;;;;9.47;38.58;99049.90;1736579;81;21009;-61
2022/03/04 10:47:59;;;;;;;9.33;8.45;;;;;;;9.22;38.91;99054.50;1703795;82;21242;-62
2022/03/04 10:50:38;;;;;;;9.93;8.78;;;;;;;9.07;39.07;99052.21;1731145;81;21014;-63
2022/03/04 10:53:13;;;;;;;12.53;8.05;;;;;;;8.91;39.42;99048.80;1708867;82;21428;-63
2022/03/04 10:55:57;;;;;;;13.67;8.87;;;;;;;8.79;39.86;99056.27;1733343;81;20985;-67
2022/03/04 10:58:29;;;;;;;10.75;9.53;;;;;;;8.65;40.15;99061.79;1717772;82;20869;-62
2022/03/04 11:01:00;;;;;;;10.43;9.00;;;;;;;8.51;40.70;99055.00;1728613;81;21328;-62
2022/03/04 11:03:31;;;;;;;11.25;10.13;;;;;;;8.40;40.93;99052.19;1744537;81;21030;-63
2022/03/04 11:06:04;;;;;;;11.00;9.15;;;;;;;8.32;40.93;99056.66;1742506;81;20979;-61
2022/03/04 11:08:32;;;;;;;13.25;8.83;;;;;;;8.25;40.30;99050.34;1751971;81;21497;-65
2022/03/04 11:10:59;;;;;;;9.33;8.33;;;;;;;8.14;40.23;99046.19;1741898;81;20999;-64
2022/03/04 11:13:32;;;;;;;9.48;8.10;;;;;;;8.03;40.04;99051.31;1739426;81;21293;-62
2022/03/04 11:16:00;;;;;;;8.65;7.58;;;;;;;7.92;40.03;99054.31;1716313;81;21007;-63
2022/03/04 11:18:27;;;;;;;10.00;8.78;;;;;;;7.92;40.57;99051.66;1756067;81;21030;-69
2022/03/04 11:20:59;;;;;;;12.82;8.30;;;;;;;7.93;40.86;99043.19;1735966;81;21002;-64
2022/03/04 11:23:31;;;;;;;9.85;8.85;;;;;;;8.03;41.21;99047.83;1756708;81;21054;-61
2022/03/04 11:26:04;;;;;;;10.08;8.85;;;;;;;8.04;40.94;99049.50;1746694;80;21239;-63
2022/03/04 11:28:39;;;;;;;12.13;9.55;;;;;;;7.97;40.82;99047.19;1720825;81;21557;-66
2022/03/04 11:31:07;;;;;;;9.80;8.90;;;;;;;7.93;40.59;99053.30;1727188;82;20998;-62
2022/03/04 11:33:43;;;;;;;10.38;9.28;;;;;;;7.85;40.76;99053.28;1735004;81;21291;-62
2022/03/04 11:36:22;;;;;;;9.38;7.95;;;;;;;7.78;41.06;99052.28;1747503;81;21006;-64
2022/03/04 11:38:54;;;;;;;10.50;8.48;;;;;;;7.78;41.07;99048.80;1739703;81;21261;-66